Time;durP1;ratioP1;P1;durP2;ratioP2;P2;SDS_P1;SDS_P2;PMS_P1;PMS_P2;Temp;Humidity;BMP_temperature;BMP_pressure;BME280_temperature;BME280_humidity;BME280_pressure;Samples;Min_cycle;Max_cycle;Signal;HPM_P1;HPM_P2
2023/08/19 00:01:32;;;;;;;30.20;20.30;;;;;;;21.38;100.00;101178.66;4974087;28;20031;-86
2023/08/19 00:03:59;;;;;;;26.75;17.90;;;;;;;21.50;100.00;101185.69;4973671;28;20030;-87
2023/08/19 00:06:36;;;;;;;28.67;20.48;;;;;;;21.58;100.00;101192.81;4983180;28;20045;-87
2023/08/19 00:09:04;;;;;;;24.80;18.35;;;;;;;21.58;100.00;101194.88;4985571;28;20419;-88
2023/08/19 00:11:33;;;;;;;25.85;17.83;;;;;;;21.54;100.00;101183.56;4980105;28;20034;-87
2023/08/19 00:13:59;;;;;;;30.60;18.88;;;;;;;21.57;100.00;101185.53;4966725;28;20038;-86
2023/08/19 00:16:24;;;;;;;26.02;18.95;;;;;;;21.50;100.00;101174.31;4961585;28;20506;-87
2023/08/19 00:18:50;;;;;;;27.67;18.27;;;;;;;21.42;100.00;101172.88;4992551;28;20080;-87
2023/08/19 00:21:16;;;;;;;27.08;19.38;;;;;;;21.49;100.00;101178.41;4989644;28;20170;-87
2023/08/19 00:23:41;;;;;;;25.90;17.20;;;;;;;21.41;100.00;101171.28;4979097;28;20445;-87
2023/08/19 00:26:06;;;;;;;23.48;16.60;;;;;;;21.46;100.00;101173.59;4978737;28;20042;-87
2023/08/19 00:28:32;;;;;;;22.27;16.58;;;;;;;21.46;100.00;101173.59;4971417;28;20034;-87
2023/08/19 00:30:57;;;;;;;27.77;18.35;;;;;;;21.42;100.00;101164.34;4974021;28;20027;-87
2023/08/19 00:33:24;;;;;;;31.08;20.98;;;;;;;21.33;100.00;101153.56;4973716;28;20030;-87
2023/08/19 00:35:51;;;;;;;26.73;17.52;;;;;;;21.44;100.00;101164.69;4988859;28;20093;-87
2023/08/19 00:38:17;;;;;;;24.55;17.65;;;;;;;21.43;100.00;101169.59;4978513;28;20057;-87
2023/08/19 00:40:42;;;;;;;25.27;17.35;;;;;;;21.38;100.00;101160.75;4973454;28;20038;-87
2023/08/19 00:43:08;;;;;;;26.63;18.42;;;;;;;21.37;100.00;101159.16;4978375;28;20056;-87
2023/08/19 00:45:33;;;;;;;27.40;18.27;;;;;;;21.41;100.00;101163.53;4972172;28;20489;-86
2023/08/19 00:47:59;;;;;;;25.98;18.67;;;;;;;21.37;100.00;101165.66;4980936;28;20038;-87
2023/08/19 00:50:25;;;;;;;28.25;17.40;;;;;;;21.39;100.00;101163.16;4977945;28;20148;-87
2023/08/19 00:52:51;;;;;;;32.95;18.70;;;;;;;21.33;100.00;101153.56;4979396;28;20088;-87
2023/08/19 00:55:17;;;;;;;24.38;16.67;;;;;;;21.31;100.00;101156.06;4979861;28;20026;-87
2023/08/19 00:57:42;;;;;;;29.95;18.35;;;;;;;21.34;100.00;101160.06;4976934;28;20379;-87
2023/08/19 01:00:08;;;;;;;23.30;16.17;;;;;;;21.28;100.00;101152.06;4971865;28;20927;-88
2023/08/19 01:02:34;;;;;;;22.40;16.70;;;;;;;21.31;100.00;101156.88;4977347;28;20041;-87
2023/08/19 01:05:00;;;;;;;24.55;15.93;;;;;;;21.37;100.00;101156.31;4978186;28;20038;-87
2023/08/19 01:07:54;;;;;;;21.60;16.00;;;;;;;21.32;100.00;101157.66;4975554;28;20074;-87
2023/08/19 01:10:29;;;;;;;23.45;15.40;;;;;;;21.24;100.00;101157.03;4992290;28;20133;-87
2023/08/19 01:13:14;;;;;;;23.27;15.55;;;;;;;21.30;100.00;101158.09;4983176;28;20030;-87
2023/08/19 01:16:08;;;;;;;27.23;17.75;;;;;;;21.27;100.00;101150.47;4975577;28;20050;-87
2023/08/19 01:18:37;;;;;;;32.20;20.52;;;;;;;21.07;100.00;101142.00;4980023;28;20034;-86
2023/08/19 01:21:03;;;;;;;28.70;18.95;;;;;;;21.08;100.00;101152.16;4974520;28;20493;-86
2023/08/19 01:23:41;;;;;;;25.90;17.17;;;;;;;21.02;100.00;101151.09;4977497;28;21788;-87
2023/08/19 01:26:07;;;;;;;33.13;20.75;;;;;;;21.03;100.00;101151.88;4974670;28;20038;-87
2023/08/19 01:28:32;;;;;;;29.60;19.85;;;;;;;21.01;100.00;101155.16;4977308;28;20077;-87
2023/08/19 01:30:58;;;;;;;30.85;20.23;;;;;;;20.98;100.00;101149.59;4970892;28;20546;-87
2023/08/19 01:33:24;;;;;;;33.90;21.48;;;;;;;20.96;100.00;101158.56;4976296;28;20037;-87
2023/08/19 01:36:01;;;;;;;28.67;18.02;;;;;;;20.92;100.00;101146.47;4978731;28;20030;-86
2023/08/19 01:38:48;;;;;;;31.38;20.00;;;;;;;21.05;100.00;101152.25;4978633;28;20121;-87
2023/08/19 01:41:16;;;;;;;35.88;21.98;;;;;;;20.95;100.00;101144.75;4971790;28;20061;-87
2023/08/19 01:43:43;;;;;;;27.52;19.20;;;;;;;20.89;100.00;101136.78;4986485;28;20030;-86
2023/08/19 01:46:10;;;;;;;31.08;20.58;;;;;;;20.95;100.00;101136.22;4974399;28;20049;-86
2023/08/19 01:48:38;;;;;;;30.52;19.10;;;;;;;20.95;100.00;101130.53;4975938;28;20057;-87
2023/08/19 01:51:04;;;;;;;28.58;17.58;;;;;;;20.92;100.00;101140.78;4976285;28;20112;-87
2023/08/19 01:53:29;;;;;;;30.33;19.70;;;;;;;20.85;100.00;101118.16;4975847;28;20038;-86
2023/08/19 01:55:55;;;;;;;33.65;20.67;;;;;;;21.02;100.00;101134.03;4986457;28;20034;-87
2023/08/19 01:58:20;;;;;;;31.85;20.40;;;;;;;20.98;100.00;101121.91;4974722;28;20069;-87
2023/08/19 02:00:46;;;;;;;22.15;15.18;;;;;;;20.96;100.00;101115.09;4971102;28;20499;-87
2023/08/19 02:03:12;;;;;;;28.80;18.90;;;;;;;21.06;100.00;101116.84;4972249;28;20450;-87
2023/08/19 02:05:37;;;;;;;21.52;15.57;;;;;;;20.98;100.00;101121.13;4977448;28;20039;-87
2023/08/19 02:08:03;;;;;;;28.63;18.63;;;;;;;21.00;100.00;101107.25;4980182;28;20483;-87
2023/08/19 02:10:28;;;;;;;33.42;22.98;;;;;;;21.05;100.00;101109.56;4970434;28;20034;-87
2023/08/19 02:12:53;;;;;;;33.28;21.17;;;;;;;21.03;100.00;101112.03;4979380;28;20033;-87
2023/08/19 02:15:19;;;;;;;33.63;21.25;;;;;;;20.97;100.00;101108.13;4972403;28;20035;-87
2023/08/19 02:17:44;;;;;;;29.98;20.02;;;;;;;20.96;100.00;101109.38;4986887;28;20041;-87
2023/08/19 02:20:10;;;;;;;35.75;22.63;;;;;;;20.97;100.00;101105.28;4975673;28;20046;-87
2023/08/19 02:22:38;;;;;;;33.33;19.27;;;;;;;20.88;100.00;101095.31;4981920;28;20069;-87
2023/08/19 02:25:04;;;;;;;28.42;19.48;;;;;;;20.91;100.00;101094.44;4969961;28;20172;-87
2023/08/19 02:27:31;;;;;;;29.92;19.73;;;;;;;20.89;100.00;101091.25;4988613;28;20048;-87
2023/08/19 02:29:56;;;;;;;31.05;19.65;;;;;;;20.92;100.00;101084.66;4974171;28;20038;-88
2023/08/19 02:32:25;;;;;;;32.63;22.02;;;;;;;20.94;100.00;101092.75;4975505;28;20041;-87
2023/08/19 02:34:51;;;;;;;29.27;17.75;;;;;;;20.86;100.00;101092.13;4985845;28;20034;-88
2023/08/19 02:37:16;;;;;;;33.00;20.25;;;;;;;20.84;100.00;101082.44;4976482;28;20508;-86
2023/08/19 02:39:42;;;;;;;32.28;19.95;;;;;;;20.94;100.00;101091.97;4978305;28;20073;-87
2023/08/19 02:42:07;;;;;;;29.17;18.92;;;;;;;20.77;100.00;101077.72;4968346;28;20604;-87
2023/08/19 02:44:33;;;;;;;29.85;21.00;;;;;;;20.93;100.00;101096.84;4972739;28;20081;-87
2023/08/19 02:46:58;;;;;;;30.58;19.33;;;;;;;20.88;100.00;101089.63;4976037;28;20026;-87
2023/08/19 02:49:23;;;;;;;28.17;17.48;;;;;;;20.83;100.00;101087.34;4983396;28;20036;-87
2023/08/19 02:51:49;;;;;;;39.80;21.42;;;;;;;20.84;100.00;101082.44;4981669;28;20026;-87
2023/08/19 02:54:14;;;;;;;30.88;19.10;;;;;;;20.79;100.00;101089.47;4980693;28;20034;-87
2023/08/19 02:56:39;;;;;;;32.05;21.38;;;;;;;20.87;100.00;101087.22;4978240;28;20061;-87
2023/08/19 02:59:05;;;;;;;30.83;19.73;;;;;;;20.79;100.00;101072.41;4982492;28;21006;-87
2023/08/19 03:01:30;;;;;;;32.65;21.20;;;;;;;20.88;100.00;101081.09;4981388;28;20471;-87
2023/08/19 03:03:55;;;;;;;25.02;15.98;;;;;;;20.79;100.00;101078.09;4978630;28;20026;-87
2023/08/19 03:06:21;;;;;;;30.30;19.10;;;;;;;20.91;100.00;101068.84;4983813;28;20046;-86
2023/08/19 03:08:46;;;;;;;28.63;17.77;;;;;;;20.86;100.00;101069.38;4977311;28;20030;-87
2023/08/19 03:11:12;;;;;;;28.85;20.17;;;;;;;20.93;100.00;101074.06;4981994;28;20038;-87
2023/08/19 03:13:37;;;;;;;34.95;23.05;;;;;;;20.90;100.00;101072.91;4981405;28;20589;-87
2023/08/19 03:16:03;;;;;;;28.35;18.88;;;;;;;20.87;100.00;101064.47;4980483;28;20051;-87
2023/08/19 03:18:28;;;;;;;32.47;20.48;;;;;;;20.92;100.00;101070.44;4974696;28;20068;-87
2023/08/19 03:20:55;;;;;;;32.97;21.15;;;;;;;20.92;100.00;101072.47;4991684;28;20033;-86
2023/08/19 03:23:21;;;;;;;27.95;18.58;;;;;;;20.89;100.00;101071.34;4981469;28;20445;-87
2023/08/19 03:25:50;;;;;;;24.90;17.02;;;;;;;20.94;100.00;101075.69;4970563;28;20065;-88
2023/08/19 03:28:15;;;;;;;34.28;20.92;;;;;;;20.95;100.00;101067.94;4975681;28;20499;-87
2023/08/19 03:30:41;;;;;;;31.27;19.50;;;;;;;20.94;100.00;101074.88;4978389;28;20121;-88
2023/08/19 03:33:06;;;;;;;29.00;18.85;;;;;;;20.91;100.00;101065.19;4980928;28;20518;-87
2023/08/19 03:35:33;;;;;;;31.20;19.70;;;;;;;20.90;100.00;101057.91;4979786;28;20045;-87
2023/08/19 03:37:59;;;;;;;28.27;18.10;;;;;;;20.91;100.00;101060.31;4984414;28;20117;-87
2023/08/19 03:40:25;;;;;;;37.20;21.23;;;;;;;20.90;100.00;101064.38;4977732;28;20030;-87
2023/08/19 03:42:50;;;;;;;31.80;21.50;;;;;;;20.87;100.00;101056.75;4974464;28;20391;-87
2023/08/19 03:45:16;;;;;;;33.67;20.05;;;;;;;20.92;100.00;101067.59;4975431;28;20030;-87
2023/08/19 03:47:41;;;;;;;30.73;19.08;;;;;;;20.92;100.00;101061.91;4978614;28;20034;-87
2023/08/19 03:50:07;;;;;;;32.15;20.70;;;;;;;20.85;100.00;101056.41;4977875;28;20027;-87
2023/08/19 03:52:32;;;;;;;26.38;18.95;;;;;;;20.90;100.00;101067.22;4975993;28;20041;-86
2023/08/19 03:54:58;;;;;;;31.38;21.60;;;;;;;20.94;100.00;101066.34;4979427;28;20027;-87
2023/08/19 03:57:23;;;;;;;29.67;19.27;;;;;;;20.88;100.00;101058.34;4994563;28;20133;-87
2023/08/19 03:59:50;;;;;;;25.65;17.20;;;;;;;20.97;100.00;101073.97;4976993;28;20367;-86
2023/08/19 04:02:15;;;;;;;29.58;20.10;;;;;;;20.91;100.00;101066.00;4976355;28;20045;-87
2023/08/19 04:04:56;;;;;;;26.85;18.92;;;;;;;21.00;100.00;101067.41;4978549;28;20030;-87
2023/08/19 04:07:21;;;;;;;31.10;19.98;;;;;;;20.99;100.00;101068.66;4992135;28;20047;-86
2023/08/19 04:09:47;;;;;;;27.95;19.30;;;;;;;20.96;100.00;101072.41;4976013;28;20555;-87
2023/08/19 04:12:12;;;;;;;30.13;19.20;;;;;;;20.97;100.00;101073.97;4973350;28;20043;-87
2023/08/19 04:14:38;;;;;;;29.63;18.33;;;;;;;21.01;100.00;101081.19;4976782;28;20054;-87
2023/08/19 04:17:03;;;;;;;22.25;16.13;;;;;;;20.98;100.00;101069.91;4972616;28;20125;-87
2023/08/19 04:19:28;;;;;;;26.88;17.33;;;;;;;21.01;100.00;101066.16;4979109;28;20034;-87
2023/08/19 04:21:54;;;;;;;26.38;16.92;;;;;;;20.91;100.00;101051.78;4980955;28;20026;-87
2023/08/19 04:24:19;;;;;;;28.63;17.92;;;;;;;21.03;100.00;101060.81;4975416;28;20053;-87
2023/08/19 04:26:44;;;;;;;26.70;17.33;;;;;;;21.05;100.00;101064.03;4975776;28;20034;-87
2023/08/19 04:29:10;;;;;;;25.23;15.88;;;;;;;21.02;100.00;101059.19;4977183;28;20491;-87
2023/08/19 04:31:35;;;;;;;23.08;16.50;;;;;;;21.08;100.00;101068.81;4979952;28;20035;-87
2023/08/19 04:34:00;;;;;;;29.23;18.27;;;;;;;21.07;100.00;101067.22;4979276;28;20038;-87
2023/08/19 04:36:26;;;;;;;23.60;15.73;;;;;;;21.08;100.00;101068.81;4981916;28;20030;-87
2023/08/19 04:38:51;;;;;;;21.98;14.75;;;;;;;21.11;100.00;101070.78;4980870;28;20038;-87
2023/08/19 04:41:17;;;;;;;28.27;17.27;;;;;;;21.11;100.00;101067.94;4979038;28;20034;-87
2023/08/19 04:43:42;;;;;;;22.67;16.30;;;;;;;21.14;100.00;101078.41;4980386;28;20566;-86
2023/08/19 04:46:07;;;;;;;30.13;18.70;;;;;;;21.14;100.00;101071.91;4981379;28;21201;-87
2023/08/19 04:48:33;;;;;;;22.15;15.65;;;;;;;21.14;100.00;101072.72;4981625;28;20494;-87
2023/08/19 04:51:00;;;;;;;31.10;17.10;;;;;;;21.14;100.00;101078.41;4989552;28;20538;-87
2023/08/19 04:53:25;;;;;;;27.77;16.00;;;;;;;21.14;100.00;101077.63;4989624;28;20490;-87
2023/08/19 04:55:58;;;;;;;24.30;16.00;;;;;;;21.11;100.00;101071.56;4985062;28;20034;-87
2023/08/19 04:58:24;;;;;;;25.45;17.05;;;;;;;21.16;100.00;101075.91;4985830;28;20472;-87
2023/08/19 05:00:49;;;;;;;25.98;16.70;;;;;;;21.08;100.00;101057.41;4981280;28;20109;-87
2023/08/19 05:03:15;;;;;;;23.08;16.33;;;;;;;21.21;100.00;101078.25;4982203;28;20026;-88
2023/08/19 05:05:41;;;;;;;22.80;16.73;;;;;;;21.13;100.00;101067.50;4987734;28;20073;-87
2023/08/19 05:08:06;;;;;;;23.15;16.50;;;;;;;21.19;100.00;101077.88;4983676;28;20484;-87
2023/08/19 05:10:31;;;;;;;24.55;16.58;;;;;;;21.13;100.00;101065.44;4987589;28;20030;-88
2023/08/19 05:12:58;;;;;;;23.75;15.20;;;;;;;21.21;100.00;101066.84;4988359;28;20031;-88
2023/08/19 05:15:23;;;;;;;23.25;16.00;;;;;;;21.25;100.00;101078.94;4978230;28;20042;-87
2023/08/19 05:17:49;;;;;;;22.65;15.75;;;;;;;21.25;100.00;101067.56;4978688;28;20534;-88
2023/08/19 05:20:14;;;;;;;23.48;15.52;;;;;;;21.25;100.00;101067.56;4977490;28;20058;-87
2023/08/19 05:22:39;;;;;;;24.90;15.82;;;;;;;21.21;100.00;101066.84;4980215;28;20049;-88
2023/08/19 05:25:05;;;;;;;19.98;14.60;;;;;;;21.19;100.00;101075.03;4975530;28;20048;-88
2023/08/19 05:27:31;;;;;;;23.95;15.15;;;;;;;21.25;100.00;101073.25;4980642;28;20375;-88
2023/08/19 05:29:56;;;;;;;25.38;16.42;;;;;;;21.26;100.00;101080.53;4985377;28;20408;-87
2023/08/19 05:32:22;;;;;;;21.23;13.15;;;;;;;21.21;100.00;101080.25;4981018;28;20164;-87
2023/08/19 05:34:47;;;;;;;28.58;15.85;;;;;;;21.32;100.00;101087.28;4998002;28;20041;-88
2023/08/19 05:37:12;;;;;;;22.60;14.05;;;;;;;21.35;100.00;101093.31;5004104;28;20124;-88
2023/08/19 05:39:38;;;;;;;21.90;13.93;;;;;;;21.36;100.00;101089.25;4980770;28;20037;-88
2023/08/19 05:42:04;;;;;;;21.85;14.52;;;;;;;21.41;100.00;101080.94;4984211;28;20041;-88
2023/08/19 05:44:29;;;;;;;20.98;14.10;;;;;;;21.37;100.00;101073.75;4983153;28;20038;-88
2023/08/19 05:46:55;;;;;;;23.77;14.73;;;;;;;21.33;100.00;101068.16;4981808;28;20113;-87
2023/08/19 05:49:20;;;;;;;22.00;15.82;;;;;;;21.35;100.00;101076.25;4983461;28;20089;-88
2023/08/19 05:51:45;;;;;;;20.83;14.05;;;;;;;21.38;100.00;101093.25;4980096;28;20034;-87
2023/08/19 05:54:11;;;;;;;21.42;15.35;;;;;;;21.35;100.00;101081.94;4976930;28;20046;-88
2023/08/19 05:56:36;;;;;;;21.42;14.43;;;;;;;21.38;100.00;101093.25;4982310;28;20483;-88
2023/08/19 05:59:02;;;;;;;22.45;15.50;;;;;;;21.41;100.00;101103.72;4972703;28;20104;-88
2023/08/19 06:01:28;;;;;;;21.83;13.52;;;;;;;21.43;100.00;101100.47;4977140;28;20044;-88
2023/08/19 06:03:53;;;;;;;20.17;13.55;;;;;;;21.43;100.00;101100.47;4979864;28;20102;-87
2023/08/19 06:06:19;;;;;;;23.27;14.38;;;;;;;21.51;100.00;101099.03;4977403;28;20030;-87
2023/08/19 06:08:44;;;;;;;20.48;14.70;;;;;;;21.51;100.00;101096.19;4972028;28;20379;-87
2023/08/19 06:11:10;;;;;;;22.88;15.15;;;;;;;21.55;100.00;101076.94;4972640;28;20062;-88
2023/08/19 06:13:36;;;;;;;24.35;15.77;;;;;;;21.58;100.00;101081.72;4985334;28;20402;-88
2023/08/19 06:16:03;;;;;;;19.67;13.45;;;;;;;21.56;100.00;101087.06;4980947;28;20506;-88
2023/08/19 06:18:32;;;;;;;22.38;14.50;;;;;;;21.53;100.00;101079.44;4980252;28;20403;-88
2023/08/19 06:20:58;;;;;;;21.08;14.55;;;;;;;21.64;100.00;101091.31;4987744;28;20026;-88
2023/08/19 06:23:23;;;;;;;18.58;12.15;;;;;;;21.65;100.00;101095.78;4996348;28;20037;-87
2023/08/19 06:25:50;;;;;;;18.48;12.75;;;;;;;21.68;100.00;101094.88;4984569;28;20026;-87
2023/08/19 06:28:17;;;;;;;21.20;14.40;;;;;;;21.68;100.00;101106.25;4978773;28;20523;-88
2023/08/19 06:30:43;;;;;;;20.23;13.77;;;;;;;21.69;100.00;101102.19;4976972;28;20033;-88
2023/08/19 06:33:09;;;;;;;17.35;13.13;;;;;;;21.76;100.00;101103.19;4984072;28;20030;-88
2023/08/19 06:35:35;;;;;;;23.90;13.25;;;;;;;21.74;100.00;101100.03;4997659;28;20145;-87
2023/08/19 06:38:07;;;;;;;19.65;12.35;;;;;;;21.80;100.00;101093.31;4976820;28;20030;-88
2023/08/19 06:40:36;;;;;;;16.77;11.93;;;;;;;21.86;100.00;101105.78;4975085;28;20398;-86
2023/08/19 06:43:04;;;;;;;20.80;13.70;;;;;;;21.93;100.00;101104.75;4985025;28;20033;-87
2023/08/19 06:45:30;;;;;;;20.00;12.65;;;;;;;21.90;100.00;101094.25;4979257;28;20164;-86
2023/08/19 06:47:57;;;;;;;19.73;13.13;;;;;;;21.98;100.00;101100.56;4983419;28;20027;-87
2023/08/19 06:50:23;;;;;;;18.48;13.27;;;;;;;21.92;100.00;101083.19;4979403;28;20168;-87
2023/08/19 06:52:49;;;;;;;15.48;11.35;;;;;;;22.01;100.00;101093.94;4978959;28;20121;-86
2023/08/19 06:55:15;;;;;;;19.02;11.98;;;;;;;22.01;100.00;101083.34;4982488;28;20410;-87
2023/08/19 06:57:50;;;;;;;15.93;10.77;;;;;;;22.08;100.00;101100.22;4976072;28;20107;-86
2023/08/19 07:00:16;;;;;;;16.00;11.20;;;;;;;22.17;100.00;101113.81;4978237;28;20030;-87
2023/08/19 07:02:42;;;;;;;16.45;10.25;;;;;;;22.25;100.00;101118.09;4978511;28;20026;-87
2023/08/19 07:05:18;;;;;;;14.75;11.65;;;;;;;22.29;100.00;101117.97;4981423;28;20085;-87
2023/08/19 07:07:48;;;;;;;16.95;11.63;;;;;;;22.30;100.00;101102.47;4976999;28;20027;-87
2023/08/19 07:10:18;;;;;;;17.40;11.27;;;;;;;22.36;100.00;101102.69;4984394;28;20491;-87
2023/08/19 07:12:44;;;;;;;18.35;9.80;;;;;;;22.36;100.00;101100.63;4987327;28;20080;-86
2023/08/19 07:15:14;;;;;;;13.50;10.60;;;;;;;22.41;100.00;101108.66;4978585;28;20058;-87
2023/08/19 07:17:54;;;;;;;20.73;10.57;;;;;;;22.50;100.00;101107.97;4984216;28;20561;-86
2023/08/19 07:20:23;;;;;;;16.77;9.60;;;;;;;22.54;100.00;101108.66;4978449;28;20496;-87
2023/08/19 07:22:51;;;;;;;15.50;9.80;;;;;;;22.65;100.00;101108.31;4977866;28;20096;-86
2023/08/19 07:25:17;;;;;;;14.75;9.68;;;;;;;22.70;100.00;101105.66;4974290;28;20038;-86
2023/08/19 07:27:44;;;;;;;20.88;11.57;;;;;;;22.86;100.00;101121.09;4976483;28;20030;-87
2023/08/19 07:30:11;;;;;;;18.23;11.60;;;;;;;22.93;100.00;101120.84;4972297;28;20758;-87
2023/08/19 07:32:37;;;;;;;15.00;10.68;;;;;;;23.00;100.00;101122.66;4968623;28;20262;-77
2023/08/19 07:35:03;;;;;;;13.73;9.82;;;;;;;22.84;100.00;101121.53;4972420;28;20042;-78
2023/08/19 07:37:29;;;;;;;14.13;8.63;;;;;;;22.89;100.00;101120.16;4982353;28;20038;-78
2023/08/19 07:39:56;;;;;;;14.85;9.00;;;;;;;22.93;100.00;101127.34;4984031;28;20387;-78
2023/08/19 07:42:22;;;;;;;12.52;8.98;;;;;;;22.98;100.00;101119.47;4977832;28;20034;-78
2023/08/19 07:44:47;;;;;;;12.60;8.52;;;;;;;22.96;100.00;101121.97;4987117;28;20549;-78
2023/08/19 07:47:12;;;;;;;11.60;8.45;;;;;;;23.09;100.00;101132.16;4982809;28;20186;-78
2023/08/19 07:49:38;;;;;;;13.20;9.90;;;;;;;23.00;100.00;101132.03;4978524;28;20475;-78
2023/08/19 07:52:04;;;;;;;15.35;9.57;;;;;;;22.99;100.00;101132.47;4978964;28;20054;-78
2023/08/19 07:54:30;;;;;;;14.40;9.20;;;;;;;22.91;100.00;101138.41;4981174;28;20064;-78
2023/08/19 07:56:57;;;;;;;15.80;10.45;;;;;;;22.92;100.00;101136.38;4983076;28;20454;-78
2023/08/19 07:59:23;;;;;;;21.83;11.27;;;;;;;23.02;100.00;101140.16;4979949;28;20054;-78
2023/08/19 08:01:49;;;;;;;15.48;9.40;;;;;;;22.93;100.00;101130.19;4983330;28;20126;-79
2023/08/19 08:04:14;;;;;;;15.80;11.27;;;;;;;22.99;100.00;101132.47;4982751;28;20030;-78
2023/08/19 08:06:40;;;;;;;15.82;10.40;;;;;;;23.02;100.00;101143.81;4979935;28;20542;-78
2023/08/19 08:09:05;;;;;;;15.38;9.27;;;;;;;23.00;100.00;101151.19;4979235;28;20057;-78
2023/08/19 08:11:30;;;;;;;17.52;10.55;;;;;;;23.05;100.00;101142.09;4981868;28;20080;-78
2023/08/19 08:13:56;;;;;;;11.88;9.43;;;;;;;23.11;100.00;101146.78;4987466;28;20041;-78
2023/08/19 08:16:22;;;;;;;17.20;10.45;;;;;;;23.15;100.00;101135.25;4998017;28;20053;-78
2023/08/19 08:18:48;;;;;;;18.70;10.77;;;;;;;23.28;100.00;101138.84;4998283;28;20030;-78
2023/08/19 08:21:14;;;;;;;13.15;9.27;;;;;;;23.30;100.00;101139.19;5000064;28;20022;-78
2023/08/19 08:23:40;;;;;;;15.25;10.90;;;;;;;23.45;100.00;101124.41;4995053;28;20069;-78
2023/08/19 08:26:06;;;;;;;17.02;10.93;;;;;;;23.59;100.00;101126.78;4977244;28;20038;-78
2023/08/19 08:28:31;;;;;;;16.10;10.68;;;;;;;23.59;100.00;101131.66;4983129;28;20033;-78
2023/08/19 08:30:56;;;;;;;12.15;9.88;;;;;;;23.57;100.00;101137.88;4997791;28;20534;-78
2023/08/19 08:33:22;;;;;;;13.82;9.55;;;;;;;23.68;100.00;101146.84;4975814;28;20034;-78
2023/08/19 08:35:48;;;;;;;18.52;11.57;;;;;;;23.88;100.00;101145.75;4977112;28;20657;-78
2023/08/19 08:38:13;;;;;;;15.55;9.90;;;;;;;23.81;100.00;101146.03;4978903;28;20042;-78
2023/08/19 08:40:39;;;;;;;14.65;9.77;;;;;;;23.84;100.00;101147.94;4975946;28;20065;-78
2023/08/19 08:43:06;;;;;;;17.13;10.27;;;;;;;23.88;100.00;101163.69;4980893;28;20113;-78
2023/08/19 08:45:32;;;;;;;13.88;9.88;;;;;;;24.06;100.00;101168.00;4982210;28;20470;-78
2023/08/19 08:48:00;;;;;;;16.17;10.18;;;;;;;24.04;100.00;101164.78;4978880;28;20034;-78
2023/08/19 08:50:26;;;;;;;13.68;9.43;;;;;;;24.04;100.00;101176.22;4985553;28;20105;-78
2023/08/19 08:52:52;;;;;;;14.48;9.43;;;;;;;24.07;100.00;101173.22;4979665;28;20026;-78
2023/08/19 08:55:18;;;;;;;12.65;9.10;;;;;;;24.04;100.00;101188.47;4976423;28;20056;-78
2023/08/19 08:57:43;;;;;;;20.73;11.82;;;;;;;24.08;100.00;101180.56;4978176;28;20045;-78
2023/08/19 09:00:12;;;;;;;15.15;8.82;;;;;;;24.23;100.00;101182.88;4975175;28;20475;-78
2023/08/19 09:02:40;;;;;;;14.55;9.60;;;;;;;24.37;100.00;101198.69;4981721;28;20035;-78
2023/08/19 09:05:06;;;;;;;16.90;9.50;;;;;;;24.32;100.00;101203.75;4981679;28;20443;-78
2023/08/19 09:07:37;;;;;;;10.75;8.48;;;;;;;24.69;100.00;101208.94;4980629;28;20030;-78
2023/08/19 09:10:06;;;;;;;12.40;8.50;;;;;;;24.62;100.00;101212.06;4975920;28;20088;-78
2023/08/19 09:12:34;;;;;;;14.13;8.90;;;;;;;24.72;100.00;101205.94;4974117;28;20034;-78
2023/08/19 09:15:03;;;;;;;10.68;8.32;;;;;;;24.68;100.00;101204.47;4989569;28;20051;-79
2023/08/19 09:17:30;;;;;;;11.60;8.80;;;;;;;24.58;100.00;101202.81;4977490;28;20035;-78
2023/08/19 09:19:56;;;;;;;14.70;9.27;;;;;;;24.46;100.00;101196.69;4974914;28;20384;-78
2023/08/19 09:22:23;;;;;;;10.32;8.55;;;;;;;24.54;100.00;101194.41;4969259;28;20054;-78
2023/08/19 09:24:52;;;;;;;12.05;9.13;;;;;;;24.48;100.00;101185.59;4974470;28;20427;-78
2023/08/19 09:27:31;;;;;;;13.07;9.05;;;;;;;24.44;100.00;101193.50;4976131;28;20439;-79
2023/08/19 09:29:58;;;;;;;12.82;8.00;;;;;;;24.32;100.00;101211.53;4979398;28;20030;-79
2023/08/19 09:32:36;;;;;;;16.58;8.80;;;;;;;24.34;100.00;101223.31;4978946;28;20042;-78
2023/08/19 09:35:12;;;;;;;11.73;9.80;;;;;;;24.22;100.00;101221.31;4976113;28;20065;-78
2023/08/19 09:37:40;;;;;;;13.77;9.38;;;;;;;24.29;100.00;101210.41;4984686;28;20018;-79
2023/08/19 09:40:08;;;;;;;10.93;7.82;;;;;;;24.31;100.00;101207.09;4980295;28;20066;-78
2023/08/19 09:42:35;;;;;;;14.40;9.52;;;;;;;24.35;100.00;101220.00;4980838;28;20038;-78
2023/08/19 09:45:02;;;;;;;14.63;9.52;;;;;;;24.38;100.00;101200.31;4980676;28;20117;-78
2023/08/19 09:47:47;;;;;;;14.05;9.15;;;;;;;24.45;100.00;101209.38;4973140;28;20039;-91
2023/08/19 09:50:14;;;;;;;12.73;8.68;;;;;;;24.45;100.00;101209.38;4975937;28;20658;-91
2023/08/19 09:52:40;;;;;;;13.32;10.88;;;;;;;24.37;100.00;101215.84;4980671;28;20034;-90
2023/08/19 09:55:06;;;;;;;13.98;9.13;;;;;;;24.46;100.00;101236.75;4984251;28;20031;-90
2023/08/19 09:57:32;;;;;;;17.25;10.38;;;;;;;24.37;100.00;101219.53;4981454;28;20403;-90
2023/08/19 09:59:59;;;;;;;17.95;9.85;;;;;;;24.35;100.00;101222.84;4978162;28;20117;-90
2023/08/19 10:02:24;;;;;;;13.68;9.20;;;;;;;24.37;100.00;101238.75;4982079;28;20485;-91
2023/08/19 10:04:50;;;;;;;13.93;9.30;;;;;;;24.48;100.00;101245.66;4979973;28;20026;-91
2023/08/19 10:07:22;;;;;;;14.57;9.98;;;;;;;24.34;100.00;101223.31;4986285;28;20030;-92
2023/08/19 10:09:49;;;;;;;14.50;9.40;;;;;;;24.44;100.00;101227.84;4995853;28;20025;-91
2023/08/19 10:12:15;;;;;;;17.73;9.00;;;;;;;24.47;100.00;101260.44;4988633;28;20042;-89
2023/08/19 10:14:45;;;;;;;12.75;10.43;;;;;;;24.50;100.00;101246.03;4982787;28;20050;-89
2023/08/19 10:17:11;;;;;;;23.02;11.95;;;;;;;24.62;100.00;101266.44;4985886;28;20120;-89
2023/08/19 10:19:53;;;;;;;24.42;10.13;;;;;;;24.78;100.00;101269.09;5001774;28;20034;-89
2023/08/19 10:22:19;;;;;;;18.15;11.02;;;;;;;24.80;100.00;101263.72;4984748;28;20031;-90
2023/08/19 10:24:46;;;;;;;13.68;9.57;;;;;;;24.82;100.00;101271.84;4975762;28;20486;-89
2023/08/19 10:27:19;;;;;;;14.70;10.60;;;;;;;25.03;100.00;101284.53;4979103;28;20034;-89
2023/08/19 10:29:48;;;;;;;15.48;11.10;;;;;;;24.93;100.00;101272.22;4969203;28;20414;-89
2023/08/19 10:32:27;;;;;;;14.68;10.52;;;;;;;25.02;100.00;101292.28;4976197;28;20019;-89
2023/08/19 10:35:09;;;;;;;13.48;9.68;;;;;;;25.05;100.00;101279.91;4993917;28;20118;-89
2023/08/19 10:37:35;;;;;;;;;;;;;;;25.23;100.00;101293.53;4980535;28;20034;-89
2023/08/19 10:40:11;;;;;;;12.73;10.45;;;;;;;25.21;100.00;101290.34;4971763;28;20563;-89
2023/08/19 10:42:37;;;;;;;15.15;11.23;;;;;;;25.14;100.00;101279.16;4974511;28;20479;-89
2023/08/19 10:45:05;;;;;;;15.60;12.40;;;;;;;25.38;100.00;101288.03;4977482;28;20041;-89
2023/08/19 10:47:31;;;;;;;16.38;11.68;;;;;;;25.52;100.00;101301.78;4975475;28;20262;-89
2023/08/19 10:50:04;;;;;;;18.33;10.38;;;;;;;25.13;100.00;101300.44;4977425;28;20039;-90
2023/08/19 10:52:30;;;;;;;12.90;9.82;;;;;;;24.92;100.00;101284.94;4982921;28;20026;-90
2023/08/19 10:54:59;;;;;;;17.83;14.25;;;;;;;25.28;100.00;101295.00;4978126;28;20084;-88
2023/08/19 10:57:26;;;;;;;17.13;13.43;;;;;;;25.12;100.00;101304.59;4981153;28;20495;-89
2023/08/19 10:59:57;;;;;;;19.25;13.77;;;;;;;25.53;100.00;101317.72;4991408;28;20022;-89
2023/08/19 11:02:24;;;;;;;21.42;13.68;;;;;;;25.41;100.00;101318.63;4981190;28;20026;-89
2023/08/19 11:04:51;;;;;;;24.65;15.93;;;;;;;25.42;100.00;101330.88;4982843;28;20041;-90